createdAt,value
2024-03-27T00:00:13.554Z,979.30
2024-03-27T00:00:43.538Z,979.29
2024-03-27T00:01:13.534Z,979.29
2024-03-27T00:01:43.556Z,979.28
2024-03-27T00:02:13.560Z,979.26
2024-03-27T00:02:46.568Z,979.25
2024-03-27T00:03:31.621Z,979.25
2024-03-27T00:03:43.511Z,979.25
2024-03-27T00:04:13.503Z,979.23
2024-03-27T00:04:43.536Z,979.22
2024-03-27T00:05:13.491Z,979.21
2024-03-27T00:05:43.479Z,979.21
2024-03-27T00:06:13.510Z,979.19
2024-03-27T00:06:43.480Z,979.19
2024-03-27T00:07:13.498Z,979.19
2024-03-27T00:07:43.477Z,979.17
2024-03-27T00:08:13.495Z,979.16
2024-03-27T00:08:43.504Z,979.15
2024-03-27T00:09:13.551Z,979.15
2024-03-27T00:09:44.026Z,979.14
2024-03-27T00:10:13.446Z,979.13
2024-03-27T00:10:43.441Z,979.12
2024-03-27T00:11:13.440Z,979.11
2024-03-27T00:11:43.422Z,979.09
2024-03-27T00:12:14.031Z,979.08
2024-03-27T00:12:43.406Z,979.08
2024-03-27T00:13:13.438Z,979.05
2024-03-27T00:13:43.423Z,979.05
2024-03-27T00:14:13.436Z,979.05
2024-03-27T00:14:43.421Z,979.03
2024-03-27T00:15:13.396Z,979.02
2024-03-27T00:15:43.387Z,979.02
2024-03-27T00:16:13.412Z,979.02
2024-03-27T00:16:43.494Z,979.02
2024-03-27T00:17:13.579Z,979.02
2024-03-27T00:17:43.360Z,979.02
2024-03-27T00:18:13.373Z,979.03
2024-03-27T00:18:43.372Z,979.03
2024-03-27T00:19:13.369Z,979.04
2024-03-27T00:19:43.378Z,979.04
2024-03-27T00:20:13.356Z,979.05
2024-03-27T00:20:43.368Z,979.03
2024-03-27T00:21:13.326Z,979.03
2024-03-27T00:21:43.342Z,979.04
2024-03-27T00:22:13.317Z,979.03
2024-03-27T00:22:43.344Z,979.03
2024-03-27T00:23:13.305Z,979.03
2024-03-27T00:23:43.308Z,979.03
2024-03-27T00:24:13.327Z,979.03
2024-03-27T00:24:43.315Z,979.02
2024-03-27T00:25:13.336Z,979.02
2024-03-27T00:25:43.297Z,979.02
2024-03-27T00:26:13.303Z,979.03
2024-03-27T00:26:43.282Z,979.03
2024-03-27T00:27:13.276Z,979.03
2024-03-27T00:27:43.330Z,979.03
2024-03-27T00:28:13.253Z,979.04
2024-03-27T00:28:43.232Z,979.03
2024-03-27T00:29:13.295Z,979.04
2024-03-27T00:29:43.368Z,979.03
2024-03-27T00:30:13.243Z,979.02
2024-03-27T00:30:48.203Z,979.01
2024-03-27T00:31:31.321Z,978.99
2024-03-27T00:31:43.230Z,978.99
2024-03-27T00:32:13.214Z,978.97
2024-03-27T00:32:43.210Z,978.95
2024-03-27T00:33:13.206Z,978.93
2024-03-27T00:33:43.204Z,978.91
2024-03-27T00:34:13.186Z,978.91
2024-03-27T00:34:43.170Z,978.89
2024-03-27T00:35:13.205Z,978.89
2024-03-27T00:35:43.175Z,978.89
2024-03-27T00:36:13.185Z,978.90
2024-03-27T00:36:43.161Z,978.89
2024-03-27T00:37:13.212Z,978.87
2024-03-27T00:37:43.173Z,978.89
2024-03-27T00:38:13.165Z,978.88
2024-03-27T00:38:43.144Z,978.87
2024-03-27T00:39:13.141Z,978.87
2024-03-27T00:39:43.142Z,978.87
2024-03-27T00:40:13.149Z,978.88
2024-03-27T00:40:43.142Z,978.88
2024-03-27T00:41:13.140Z,978.88
2024-03-27T00:41:43.130Z,978.88
2024-03-27T00:42:13.120Z,978.88
2024-03-27T00:42:43.151Z,978.87
2024-03-27T00:43:13.121Z,978.85
2024-03-27T00:43:43.147Z,978.83
2024-03-27T00:44:13.132Z,978.84
2024-03-27T00:44:43.265Z,978.83
2024-03-27T00:45:13.295Z,978.82
2024-03-27T00:45:43.210Z,978.81
2024-03-27T00:46:13.314Z,978.82
2024-03-27T00:46:43.083Z,978.83
2024-03-27T00:47:13.268Z,978.82
2024-03-27T00:47:43.116Z,978.82
2024-03-27T00:48:13.074Z,978.82
2024-03-27T00:48:43.155Z,978.81
2024-03-27T00:49:13.176Z,978.81
2024-03-27T00:49:44.135Z,978.81
2024-03-27T00:50:13.020Z,978.80
2024-03-27T00:50:43.055Z,978.81
2024-03-27T00:51:13.236Z,978.81
2024-03-27T00:51:43.022Z,978.81
2024-03-27T00:52:13.908Z,978.82
2024-03-27T00:52:43.039Z,978.82
2024-03-27T00:53:13.045Z,978.82
2024-03-27T00:53:42.998Z,978.83
2024-03-27T00:54:13.005Z,978.84
2024-03-27T00:54:42.996Z,978.84
2024-03-27T00:55:14.548Z,978.83
2024-03-27T00:55:42.991Z,978.84
2024-03-27T00:56:12.994Z,978.83
2024-03-27T00:56:43.551Z,978.83
2024-03-27T00:57:13.098Z,978.82
2024-03-27T00:57:43.001Z,978.81
2024-03-27T00:58:12.976Z,978.78
2024-03-27T00:58:45.977Z,978.76
2024-03-27T00:59:31.105Z,978.76
2024-03-27T00:59:42.971Z,978.76
2024-03-27T01:00:12.937Z,978.76
2024-03-27T01:00:42.957Z,978.74
2024-03-27T01:01:13.028Z,978.72
2024-03-27T01:01:42.930Z,978.73
2024-03-27T01:02:12.984Z,978.74
2024-03-27T01:02:42.940Z,978.72
2024-03-27T01:03:12.892Z,978.72
2024-03-27T01:03:42.961Z,978.74
2024-03-27T01:04:12.919Z,978.75
2024-03-27T01:04:42.909Z,978.75
2024-03-27T01:05:12.929Z,978.75
2024-03-27T01:05:42.882Z,978.75
2024-03-27T01:06:12.858Z,978.73
2024-03-27T01:06:42.902Z,978.74
2024-03-27T01:07:12.902Z,978.73
2024-03-27T01:07:42.870Z,978.73
2024-03-27T01:08:12.826Z,978.72
2024-03-27T01:08:43.476Z,978.71
2024-03-27T01:09:12.845Z,978.69
2024-03-27T01:09:42.808Z,978.69
2024-03-27T01:10:12.820Z,978.70
2024-03-27T01:10:42.820Z,978.72
2024-03-27T01:11:12.807Z,978.71
2024-03-27T01:11:42.848Z,978.71
2024-03-27T01:12:12.871Z,978.71
2024-03-27T01:12:42.902Z,978.71
2024-03-27T01:13:13.017Z,978.71
2024-03-27T01:13:42.807Z,978.71
2024-03-27T01:14:12.815Z,978.70
2024-03-27T01:14:42.773Z,978.68
2024-03-27T01:15:12.769Z,978.69
2024-03-27T01:15:42.756Z,978.70
2024-03-27T01:16:12.757Z,978.68
2024-03-27T01:16:42.753Z,978.67
2024-03-27T01:17:12.758Z,978.65
2024-03-27T01:17:42.769Z,978.64
2024-03-27T01:18:12.755Z,978.63
2024-03-27T01:18:42.755Z,978.62
2024-03-27T01:19:12.710Z,978.62
2024-03-27T01:19:42.772Z,978.62
2024-03-27T01:20:12.758Z,978.62
2024-03-27T01:20:42.709Z,978.61
2024-03-27T01:21:12.709Z,978.60
2024-03-27T01:21:42.694Z,978.59
2024-03-27T01:22:13.420Z,978.58
2024-03-27T01:22:42.686Z,978.57
2024-03-27T01:23:12.675Z,978.55
2024-03-27T01:23:42.714Z,978.55
2024-03-27T01:24:12.663Z,978.54
2024-03-27T01:24:42.698Z,978.52
2024-03-27T01:25:12.670Z,978.53
2024-03-27T01:25:43.378Z,978.53
2024-03-27T01:26:12.694Z,978.52
2024-03-27T01:26:45.678Z,978.52
2024-03-27T01:27:30.828Z,978.51
2024-03-27T01:27:42.653Z,978.51
2024-03-27T01:28:12.652Z,978.51
2024-03-27T01:28:42.650Z,978.52
2024-03-27T01:29:12.624Z,978.52
2024-03-27T01:29:42.693Z,978.52
2024-03-27T01:30:12.615Z,978.50
2024-03-27T01:30:42.647Z,978.50
2024-03-27T01:31:12.640Z,978.50
2024-03-27T01:31:42.601Z,978.50
2024-03-27T01:32:12.582Z,978.49
2024-03-27T01:32:42.607Z,978.50
2024-03-27T01:33:12.582Z,978.50
2024-03-27T01:33:42.586Z,978.51
2024-03-27T01:34:12.593Z,978.50
2024-03-27T01:34:42.583Z,978.50
2024-03-27T01:35:12.598Z,978.49
2024-03-27T01:35:42.584Z,978.51
2024-03-27T01:36:12.552Z,978.52
2024-03-27T01:36:42.554Z,978.54
2024-03-27T01:37:12.530Z,978.56
2024-03-27T01:37:42.572Z,978.57
2024-03-27T01:38:12.593Z,978.55
2024-03-27T01:38:42.513Z,978.55
2024-03-27T01:39:12.570Z,978.57
2024-03-27T01:39:42.583Z,978.57
2024-03-27T01:40:12.531Z,978.58
2024-03-27T01:40:42.636Z,978.58
2024-03-27T01:41:12.751Z,978.57
2024-03-27T01:41:42.525Z,978.55
2024-03-27T01:42:12.529Z,978.55
2024-03-27T01:42:42.492Z,978.55
2024-03-27T01:43:12.500Z,978.55
2024-03-27T01:43:42.508Z,978.54
2024-03-27T01:44:12.495Z,978.51
2024-03-27T01:44:42.462Z,978.53
2024-03-27T01:45:12.480Z,978.53
2024-03-27T01:45:42.431Z,978.51
2024-03-27T01:46:12.442Z,978.50
2024-03-27T01:46:42.433Z,978.48
2024-03-27T01:47:12.437Z,978.48
2024-03-27T01:47:42.440Z,978.48
2024-03-27T01:48:12.536Z,978.48
2024-03-27T01:48:42.459Z,978.47
2024-03-27T01:49:12.443Z,978.48
2024-03-27T01:49:42.490Z,978.47
2024-03-27T01:50:12.434Z,978.45
2024-03-27T01:50:43.103Z,978.44
2024-03-27T01:51:12.403Z,978.43
2024-03-27T01:51:42.386Z,978.44
2024-03-27T01:52:12.479Z,978.43
2024-03-27T01:52:42.369Z,978.43
2024-03-27T01:53:12.388Z,978.43
2024-03-27T01:53:42.355Z,978.41
2024-03-27T01:54:12.363Z,978.39
2024-03-27T01:54:45.404Z,978.39
2024-03-27T01:55:30.469Z,978.38
2024-03-27T01:55:42.338Z,978.37
2024-03-27T01:56:12.354Z,978.36
2024-03-27T01:56:42.335Z,978.34
2024-03-27T01:57:12.347Z,978.32
2024-03-27T01:57:42.351Z,978.32
2024-03-27T01:58:12.372Z,978.31
2024-03-27T01:58:42.318Z,978.30
2024-03-27T01:59:12.301Z,978.29
2024-03-27T01:59:42.327Z,978.28
2024-03-27T02:00:12.321Z,978.28
2024-03-27T02:00:42.321Z,978.27
2024-03-27T02:01:12.303Z,978.27
2024-03-27T02:01:43.054Z,978.25
2024-03-27T02:02:12.280Z,978.26
2024-03-27T02:02:42.281Z,978.25
2024-03-27T02:03:12.282Z,978.24
2024-03-27T02:03:42.315Z,978.23
2024-03-27T02:04:13.041Z,978.22
2024-03-27T02:04:42.259Z,978.23
2024-03-27T02:05:12.247Z,978.24
2024-03-27T02:05:42.259Z,978.24
2024-03-27T02:06:12.311Z,978.24
2024-03-27T02:06:42.221Z,978.25
2024-03-27T02:07:12.208Z,978.26
2024-03-27T02:07:42.220Z,978.26
2024-03-27T02:08:12.211Z,978.25
2024-03-27T02:08:42.380Z,978.26
2024-03-27T02:09:12.382Z,978.26
2024-03-27T02:09:42.215Z,978.26
2024-03-27T02:10:12.189Z,978.26
2024-03-27T02:10:42.198Z,978.26
2024-03-27T02:11:12.195Z,978.26
2024-03-27T02:11:42.175Z,978.25
2024-03-27T02:12:12.199Z,978.25
2024-03-27T02:12:42.198Z,978.25
2024-03-27T02:13:12.237Z,978.24
2024-03-27T02:13:42.163Z,978.23
2024-03-27T02:14:12.198Z,978.24
2024-03-27T02:14:42.161Z,978.23
2024-03-27T02:15:12.164Z,978.21
2024-03-27T02:15:42.176Z,978.19
2024-03-27T02:16:12.137Z,978.17
2024-03-27T02:16:42.144Z,978.15
2024-03-27T02:17:16.614Z,978.14
2024-03-27T02:17:42.136Z,978.12
2024-03-27T02:18:12.132Z,978.11
2024-03-27T02:18:42.093Z,978.10
2024-03-27T02:19:12.098Z,978.09
2024-03-27T02:19:42.137Z,978.06
2024-03-27T02:20:12.211Z,978.05
2024-03-27T02:20:42.097Z,978.05
2024-03-27T02:21:12.105Z,978.04
2024-03-27T02:21:42.140Z,978.03
2024-03-27T02:22:12.086Z,978.02
2024-03-27T02:22:45.146Z,978.02
2024-03-27T02:23:30.305Z,978.00
2024-03-27T02:23:42.053Z,978.00
2024-03-27T02:24:12.073Z,977.99
2024-03-27T02:24:42.039Z,977.99
2024-03-27T02:25:12.080Z,977.99
2024-03-27T02:25:42.042Z,977.99
2024-03-27T02:26:12.024Z,977.99
2024-03-27T02:26:42.903Z,977.98
2024-03-27T02:27:12.024Z,977.98
2024-03-27T02:27:42.032Z,977.97
2024-03-27T02:28:12.042Z,977.97
2024-03-27T02:28:41.997Z,977.96
2024-03-27T02:29:12.003Z,977.96
2024-03-27T02:29:41.990Z,977.95
2024-03-27T02:30:12.070Z,977.95
2024-03-27T02:30:42.036Z,977.94
2024-03-27T02:31:11.974Z,977.93
2024-03-27T02:31:41.982Z,977.93
2024-03-27T02:32:11.972Z,977.92
2024-03-27T02:32:41.966Z,977.92
2024-03-27T02:33:12.018Z,977.92
2024-03-27T02:33:41.986Z,977.92
2024-03-27T02:34:11.934Z,977.91
2024-03-27T02:34:41.943Z,977.91
2024-03-27T02:35:11.980Z,977.91
2024-03-27T02:35:41.945Z,977.91
2024-03-27T02:36:11.997Z,977.90
2024-03-27T02:36:42.064Z,977.90
2024-03-27T02:37:12.107Z,977.90
2024-03-27T02:37:41.908Z,977.90
2024-03-27T02:38:11.914Z,977.90
2024-03-27T02:38:41.927Z,977.90
2024-03-27T02:39:11.891Z,977.89
2024-03-27T02:39:41.887Z,977.89
2024-03-27T02:40:12.150Z,977.89
2024-03-27T02:40:41.860Z,977.89
2024-03-27T02:41:11.932Z,977.89
2024-03-27T02:41:41.866Z,977.90
2024-03-27T02:42:11.847Z,977.90
2024-03-27T02:42:41.845Z,977.89
2024-03-27T02:43:11.885Z,977.89
2024-03-27T02:43:41.830Z,977.89
2024-03-27T02:44:11.856Z,977.88
2024-03-27T02:44:41.831Z,977.89
2024-03-27T02:45:11.849Z,977.88
2024-03-27T02:45:41.859Z,977.87
2024-03-27T02:46:11.870Z,977.87
2024-03-27T02:46:41.808Z,977.86
2024-03-27T02:47:11.828Z,977.85
2024-03-27T02:47:41.798Z,977.85
2024-03-27T02:48:11.805Z,977.84
2024-03-27T02:48:41.816Z,977.84
2024-03-27T02:49:11.853Z,977.84
2024-03-27T02:49:41.810Z,977.84
2024-03-27T02:50:11.833Z,977.84
2024-03-27T02:50:44.795Z,977.84
2024-03-27T02:51:29.914Z,977.84
2024-03-27T02:51:41.770Z,977.84
2024-03-27T02:52:11.753Z,977.83
2024-03-27T02:52:41.765Z,977.83
2024-03-27T02:53:11.730Z,977.82
2024-03-27T02:53:41.739Z,977.80
2024-03-27T02:54:11.743Z,977.79
2024-03-27T02:54:41.783Z,977.77
2024-03-27T02:55:11.691Z,977.76
2024-03-27T02:55:41.754Z,977.73
2024-03-27T02:56:11.729Z,977.72
2024-03-27T02:56:41.706Z,977.68
2024-03-27T02:57:11.705Z,977.65
2024-03-27T02:57:41.699Z,977.63
2024-03-27T02:58:11.709Z,977.60
2024-03-27T02:58:41.732Z,977.59
2024-03-27T02:59:11.677Z,977.56
2024-03-27T02:59:41.681Z,977.55
2024-03-27T03:00:11.695Z,977.54
2024-03-27T03:00:41.747Z,977.52
2024-03-27T03:01:11.690Z,977.52
2024-03-27T03:01:41.649Z,977.51
2024-03-27T03:02:11.644Z,977.51
2024-03-27T03:02:41.666Z,977.50
2024-03-27T03:03:11.663Z,977.49
2024-03-27T03:03:41.685Z,977.48
2024-03-27T03:04:11.632Z,977.47
2024-03-27T03:04:41.786Z,977.44
2024-03-27T03:05:11.779Z,977.43
2024-03-27T03:05:41.612Z,977.40
2024-03-27T03:06:11.684Z,977.37
2024-03-27T03:06:41.623Z,977.35
2024-03-27T03:07:11.582Z,977.33
2024-03-27T03:07:41.597Z,977.31
2024-03-27T03:08:11.605Z,977.28
2024-03-27T03:08:41.606Z,977.26
2024-03-27T03:09:11.583Z,977.24
2024-03-27T03:09:41.589Z,977.24
2024-03-27T03:10:11.581Z,977.23
2024-03-27T03:10:41.617Z,977.24
2024-03-27T03:11:11.599Z,977.24
2024-03-27T03:11:41.544Z,977.25
2024-03-27T03:12:11.565Z,977.26
2024-03-27T03:12:41.566Z,977.27
2024-03-27T03:13:11.529Z,977.28
2024-03-27T03:13:41.551Z,977.30
2024-03-27T03:14:11.532Z,977.32
2024-03-27T03:14:41.516Z,977.35
2024-03-27T03:15:11.588Z,977.38
2024-03-27T03:15:41.610Z,977.39
2024-03-27T03:16:11.521Z,977.41
2024-03-27T03:16:41.566Z,977.42
2024-03-27T03:17:11.516Z,977.42
2024-03-27T03:17:41.516Z,977.42
2024-03-27T03:18:11.466Z,977.43
2024-03-27T03:18:44.519Z,977.43
2024-03-27T03:19:29.590Z,977.41
2024-03-27T03:19:41.472Z,977.40
2024-03-27T03:20:11.440Z,977.39
2024-03-27T03:20:41.444Z,977.37
2024-03-27T03:21:11.475Z,977.36
2024-03-27T03:21:41.459Z,977.35
2024-03-27T03:22:11.491Z,977.35
2024-03-27T03:22:41.450Z,977.33
2024-03-27T03:23:11.439Z,977.32
2024-03-27T03:23:41.442Z,977.31
2024-03-27T03:24:11.434Z,977.31
2024-03-27T03:24:41.448Z,977.31
2024-03-27T03:25:11.400Z,977.29
2024-03-27T03:25:41.403Z,977.28
2024-03-27T03:26:11.396Z,977.27
2024-03-27T03:26:41.404Z,977.25
2024-03-27T03:27:11.465Z,977.23
2024-03-27T03:27:41.430Z,977.22
2024-03-27T03:28:11.368Z,977.20
2024-03-27T03:28:41.523Z,977.18
2024-03-27T03:29:11.388Z,977.17
2024-03-27T03:29:41.351Z,977.17
2024-03-27T03:30:11.485Z,977.17
2024-03-27T03:30:41.361Z,977.16
2024-03-27T03:31:11.338Z,977.18
2024-03-27T03:31:41.340Z,977.18
2024-03-27T03:32:11.379Z,977.19
2024-03-27T03:32:41.497Z,977.19
2024-03-27T03:33:11.482Z,977.20
2024-03-27T03:33:41.338Z,977.20
2024-03-27T03:34:11.303Z,977.20
2024-03-27T03:34:41.346Z,977.20
2024-03-27T03:35:11.321Z,977.21
2024-03-27T03:35:41.325Z,977.22
2024-03-27T03:36:11.285Z,977.23
2024-03-27T03:36:41.286Z,977.24
2024-03-27T03:37:11.368Z,977.24
2024-03-27T03:37:41.332Z,977.26
2024-03-27T03:38:11.338Z,977.26
2024-03-27T03:38:41.292Z,977.27
2024-03-27T03:39:11.245Z,977.27
2024-03-27T03:39:41.244Z,977.26
2024-03-27T03:40:11.307Z,977.26
2024-03-27T03:40:41.275Z,977.24
2024-03-27T03:41:11.247Z,977.23
2024-03-27T03:41:41.224Z,977.22
2024-03-27T03:42:11.223Z,977.19
2024-03-27T03:42:41.213Z,977.18
2024-03-27T03:43:11.216Z,977.17
2024-03-27T03:43:41.241Z,977.16
2024-03-27T03:44:11.198Z,977.15
2024-03-27T03:44:41.207Z,977.15
2024-03-27T03:45:11.201Z,977.15
2024-03-27T03:45:41.179Z,977.14
2024-03-27T03:46:14.100Z,977.14
2024-03-27T03:46:44.195Z,977.16
2024-03-27T03:47:29.283Z,977.17
2024-03-27T03:47:41.170Z,977.17
2024-03-27T03:48:11.177Z,977.17
2024-03-27T03:48:41.230Z,977.17
2024-03-27T03:49:11.158Z,977.16
2024-03-27T03:49:41.142Z,977.16
2024-03-27T03:50:11.158Z,977.15
2024-03-27T03:50:41.153Z,977.14
2024-03-27T03:51:11.115Z,977.13
2024-03-27T03:51:41.144Z,977.12
2024-03-27T03:52:11.127Z,977.12
2024-03-27T03:52:41.123Z,977.12
2024-03-27T03:53:11.132Z,977.12
2024-03-27T03:53:41.155Z,977.11
2024-03-27T03:54:11.088Z,977.10
2024-03-27T03:54:41.120Z,977.09
2024-03-27T03:55:11.080Z,977.07
2024-03-27T03:55:41.117Z,977.07
2024-03-27T03:56:11.119Z,977.07
2024-03-27T03:56:41.085Z,977.08
2024-03-27T03:57:11.075Z,977.08
2024-03-27T03:57:41.059Z,977.09
2024-03-27T03:58:11.059Z,977.10
2024-03-27T03:58:41.075Z,977.11
2024-03-27T03:59:11.091Z,977.11
2024-03-27T03:59:41.054Z,977.12
2024-03-27T04:00:11.050Z,977.14
2024-03-27T04:00:41.137Z,977.15
2024-03-27T04:01:11.240Z,977.15
2024-03-27T04:01:41.067Z,977.15
2024-03-27T04:02:11.080Z,977.16
2024-03-27T04:02:40.998Z,977.17
2024-03-27T04:03:10.987Z,977.17
2024-03-27T04:03:41.038Z,977.16
2024-03-27T04:04:11.017Z,977.15
2024-03-27T04:04:41.037Z,977.14
2024-03-27T04:05:11.001Z,977.13
2024-03-27T04:05:40.978Z,977.12
2024-03-27T04:06:11.004Z,977.10
2024-03-27T04:06:40.972Z,977.10
2024-03-27T04:07:10.948Z,977.09
2024-03-27T04:07:40.977Z,977.08
2024-03-27T04:08:10.966Z,977.07
2024-03-27T04:08:40.959Z,977.07
2024-03-27T04:09:10.933Z,977.06
2024-03-27T04:09:41.107Z,977.06
2024-03-27T04:10:10.963Z,977.06
2024-03-27T04:10:40.916Z,977.06
2024-03-27T04:11:10.974Z,977.07
2024-03-27T04:11:40.905Z,977.08
2024-03-27T04:12:10.905Z,977.10
2024-03-27T04:12:41.202Z,977.11
2024-03-27T04:13:10.891Z,977.11
2024-03-27T04:13:40.921Z,977.14
2024-03-27T04:14:10.895Z,977.16
2024-03-27T04:14:43.936Z,977.16
2024-03-27T04:15:29.001Z,977.16
2024-03-27T04:15:40.871Z,977.16
2024-03-27T04:16:10.863Z,977.18
2024-03-27T04:16:40.848Z,977.18
2024-03-27T04:17:10.862Z,977.19
2024-03-27T04:17:40.836Z,977.20
2024-03-27T04:18:10.842Z,977.20
2024-03-27T04:18:40.897Z,977.21
2024-03-27T04:19:10.817Z,977.23
2024-03-27T04:19:40.851Z,977.24
2024-03-27T04:20:12.968Z,977.21
2024-03-27T04:20:40.833Z,977.21
2024-03-27T04:21:10.843Z,977.22
2024-03-27T04:21:40.817Z,977.20
2024-03-27T04:22:10.814Z,977.18
2024-03-27T04:22:40.797Z,977.17
2024-03-27T04:23:10.771Z,977.16
2024-03-27T04:23:40.801Z,977.15
2024-03-27T04:24:10.779Z,977.14
2024-03-27T04:24:40.794Z,977.12
2024-03-27T04:25:10.757Z,977.10
2024-03-27T04:25:54.114Z,977.10
2024-03-27T04:26:10.754Z,977.11
2024-03-27T04:26:40.767Z,977.11
2024-03-27T04:27:10.751Z,977.11
2024-03-27T04:27:41.424Z,977.12
2024-03-27T04:28:10.759Z,977.12
2024-03-27T04:28:40.861Z,977.10
2024-03-27T04:29:10.917Z,977.09
2024-03-27T04:29:40.769Z,977.10
2024-03-27T04:30:10.714Z,977.09
2024-03-27T04:30:40.713Z,977.09
2024-03-27T04:31:10.723Z,977.07
2024-03-27T04:31:40.698Z,977.04
2024-03-27T04:32:10.703Z,977.01
2024-03-27T04:32:40.741Z,976.99
2024-03-27T04:33:10.698Z,976.97
2024-03-27T04:33:40.692Z,976.94
2024-03-27T04:34:10.689Z,976.91
2024-03-27T04:34:40.696Z,976.90
2024-03-27T04:35:10.739Z,976.89
2024-03-27T04:35:40.667Z,976.88
2024-03-27T04:36:10.636Z,976.87
2024-03-27T04:36:40.661Z,976.87
2024-03-27T04:37:10.626Z,976.86
2024-03-27T04:37:40.670Z,976.87
2024-03-27T04:38:10.611Z,976.87
2024-03-27T04:38:40.621Z,976.89
2024-03-27T04:39:10.614Z,976.90
2024-03-27T04:39:40.622Z,976.92
2024-03-27T04:40:10.594Z,976.93
2024-03-27T04:40:40.622Z,976.94
2024-03-27T04:41:10.534Z,976.96
2024-03-27T04:41:40.563Z,976.97
2024-03-27T04:42:10.516Z,976.98
2024-03-27T04:42:40.640Z,976.98
2024-03-27T04:43:10.674Z,976.99
2024-03-27T04:43:40.518Z,977.00
2024-03-27T04:44:10.501Z,977.00
2024-03-27T04:44:40.484Z,977.00
2024-03-27T04:45:10.504Z,977.01
2024-03-27T04:45:40.550Z,977.01
2024-03-27T04:46:10.477Z,977.02
2024-03-27T04:46:40.474Z,977.02
2024-03-27T04:47:10.481Z,977.02
2024-03-27T04:47:40.479Z,977.02
2024-03-27T04:48:10.505Z,977.03
2024-03-27T04:48:40.450Z,977.03
2024-03-27T04:49:10.461Z,977.03
2024-03-27T04:49:40.442Z,977.04
2024-03-27T04:50:10.471Z,977.05
2024-03-27T04:50:40.423Z,977.06
2024-03-27T04:51:10.444Z,977.07
2024-03-27T04:51:40.424Z,977.07
2024-03-27T04:52:10.401Z,977.08
2024-03-27T04:52:40.416Z,977.10
2024-03-27T04:53:10.440Z,977.11
2024-03-27T04:53:40.383Z,977.12
2024-03-27T04:54:10.432Z,977.14
2024-03-27T04:54:40.386Z,977.14
2024-03-27T04:55:10.447Z,977.15
2024-03-27T04:55:41.078Z,977.15
2024-03-27T04:56:10.353Z,977.16
2024-03-27T04:56:40.487Z,977.16
2024-03-27T04:57:10.589Z,977.15
2024-03-27T04:57:40.369Z,977.13
2024-03-27T04:58:10.335Z,977.12
2024-03-27T04:58:40.342Z,977.09
2024-03-27T04:59:10.319Z,977.07
2024-03-27T04:59:40.373Z,977.05
2024-03-27T05:00:10.428Z,977.03
2024-03-27T05:00:40.351Z,977.00
2024-03-27T05:01:10.315Z,976.98
2024-03-27T05:01:40.362Z,976.97
2024-03-27T05:02:10.293Z,976.95
2024-03-27T05:02:40.300Z,976.94
2024-03-27T05:03:10.306Z,976.94
2024-03-27T05:03:40.295Z,976.93
2024-03-27T05:04:10.274Z,976.93
2024-03-27T05:04:40.311Z,976.92
2024-03-27T05:05:10.310Z,976.91
2024-03-27T05:05:40.256Z,976.90
2024-03-27T05:06:10.242Z,976.89
2024-03-27T05:06:40.322Z,976.88
2024-03-27T05:07:10.252Z,976.88
2024-03-27T05:07:40.255Z,976.87
2024-03-27T05:08:10.239Z,976.87
2024-03-27T05:08:40.267Z,976.86
2024-03-27T05:09:10.244Z,976.86
2024-03-27T05:09:40.228Z,976.85
2024-03-27T05:10:10.275Z,976.85
2024-03-27T05:10:40.328Z,976.84
2024-03-27T05:11:10.375Z,976.83
2024-03-27T05:11:40.247Z,976.81
2024-03-27T05:12:10.196Z,976.79
2024-03-27T05:12:40.208Z,976.77
2024-03-27T05:13:10.173Z,976.75
2024-03-27T05:13:40.221Z,976.72
2024-03-27T05:14:10.178Z,976.71
2024-03-27T05:14:40.162Z,976.70
2024-03-27T05:15:10.162Z,976.70
2024-03-27T05:15:41.092Z,976.69
2024-03-27T05:16:10.149Z,976.69
2024-03-27T05:16:40.142Z,976.70
2024-03-27T05:17:10.138Z,976.70
2024-03-27T05:17:40.140Z,976.69
2024-03-27T05:18:10.116Z,976.69
2024-03-27T05:18:40.137Z,976.70
2024-03-27T05:19:10.174Z,976.69
2024-03-27T05:19:40.127Z,976.69
2024-03-27T05:20:10.101Z,976.69
2024-03-27T05:20:40.118Z,976.69
2024-03-27T05:21:10.145Z,976.68
2024-03-27T05:21:40.112Z,976.68
2024-03-27T05:22:10.094Z,976.66
2024-03-27T05:22:40.083Z,976.65
2024-03-27T05:23:12.913Z,976.63
2024-03-27T05:23:40.073Z,976.61
2024-03-27T05:24:10.106Z,976.61
2024-03-27T05:24:40.209Z,976.61
2024-03-27T05:25:10.342Z,976.61
2024-03-27T05:25:40.046Z,976.61
2024-03-27T05:26:10.052Z,976.62
2024-03-27T05:26:40.042Z,976.63
2024-03-27T05:27:10.050Z,976.66
2024-03-27T05:27:40.133Z,976.68
2024-03-27T05:28:11.946Z,976.70
2024-03-27T05:28:40.042Z,976.72
2024-03-27T05:29:10.051Z,976.74
2024-03-27T05:29:40.076Z,976.75
2024-03-27T05:30:10.006Z,976.77
2024-03-27T05:30:40.021Z,976.77
2024-03-27T05:31:10.026Z,976.77
2024-03-27T05:31:40.017Z,976.77
2024-03-27T05:32:10.091Z,976.79
2024-03-27T05:32:39.981Z,976.80
2024-03-27T05:33:09.998Z,976.79
2024-03-27T05:33:40.072Z,976.80
2024-03-27T05:34:09.975Z,976.80
2024-03-27T05:34:39.978Z,976.80
2024-03-27T05:35:09.949Z,976.79
2024-03-27T05:35:39.963Z,976.78
2024-03-27T05:36:17.235Z,976.78
2024-03-27T05:36:40.021Z,976.79
2024-03-27T05:37:09.978Z,976.79
2024-03-27T05:37:39.924Z,976.79
2024-03-27T05:38:09.915Z,976.79
2024-03-27T05:38:40.042Z,976.80
2024-03-27T05:39:10.061Z,976.81
2024-03-27T05:39:39.948Z,976.82
2024-03-27T05:40:09.889Z,976.83
2024-03-27T05:40:39.922Z,976.84
2024-03-27T05:41:09.901Z,976.84
2024-03-27T05:41:39.900Z,976.86
2024-03-27T05:42:09.899Z,976.87
2024-03-27T05:42:39.970Z,976.87
2024-03-27T05:43:09.869Z,976.87
2024-03-27T05:43:39.865Z,976.87
2024-03-27T05:44:09.919Z,976.88
2024-03-27T05:44:39.892Z,976.88
2024-03-27T05:45:09.862Z,976.88
2024-03-27T05:45:39.910Z,976.88
2024-03-27T05:46:09.852Z,976.90
2024-03-27T05:46:39.835Z,976.90
2024-03-27T05:47:09.830Z,976.91
2024-03-27T05:47:39.865Z,976.93
2024-03-27T05:48:09.843Z,976.94
2024-03-27T05:48:39.821Z,976.96
2024-03-27T05:49:09.845Z,976.98
2024-03-27T05:49:39.818Z,977.00
2024-03-27T05:50:09.799Z,977.01
2024-03-27T05:50:39.837Z,977.02
2024-03-27T05:51:09.811Z,977.04
2024-03-27T05:51:39.822Z,977.05
2024-03-27T05:52:09.807Z,977.05
2024-03-27T05:52:43.613Z,977.05
2024-03-27T05:53:27.894Z,977.07
2024-03-27T05:53:39.788Z,977.08
2024-03-27T05:54:09.745Z,977.09
2024-03-27T05:54:39.812Z,977.11
2024-03-27T05:55:09.777Z,977.11
2024-03-27T05:55:39.732Z,977.11
2024-03-27T05:56:09.784Z,977.13
2024-03-27T05:56:39.751Z,977.14
2024-03-27T05:57:09.731Z,977.14
2024-03-27T05:57:40.628Z,977.14
2024-03-27T05:58:09.726Z,977.14
2024-03-27T05:58:39.738Z,977.14
2024-03-27T05:59:09.715Z,977.13
2024-03-27T05:59:39.704Z,977.12
2024-03-27T06:00:09.707Z,977.12
2024-03-27T06:00:39.727Z,977.13
2024-03-27T06:01:09.709Z,977.15
2024-03-27T06:01:39.692Z,977.16
2024-03-27T06:02:09.689Z,977.17
2024-03-27T06:02:39.725Z,977.19
2024-03-27T06:03:09.709Z,977.21
2024-03-27T06:03:39.745Z,977.22
2024-03-27T06:04:09.742Z,977.23
2024-03-27T06:04:39.745Z,977.24
2024-03-27T06:05:09.717Z,977.26
2024-03-27T06:05:39.724Z,977.27
2024-03-27T06:06:09.968Z,977.28
2024-03-27T06:06:39.812Z,977.28
2024-03-27T06:07:09.776Z,977.29
2024-03-27T06:07:39.666Z,977.28
2024-03-27T06:08:09.657Z,977.29
2024-03-27T06:08:39.658Z,977.30
2024-03-27T06:09:09.602Z,977.30
2024-03-27T06:09:39.719Z,977.31
2024-03-27T06:10:09.610Z,977.32
2024-03-27T06:10:39.679Z,977.32
2024-03-27T06:11:09.645Z,977.33
2024-03-27T06:11:39.660Z,977.34
2024-03-27T06:12:09.601Z,977.34
2024-03-27T06:12:39.664Z,977.33
2024-03-27T06:13:09.643Z,977.33
2024-03-27T06:13:39.602Z,977.34
2024-03-27T06:14:09.552Z,977.33